sensor_id;sensor_type;location;lat;lon;timestamp;pressure;altitude;pressure_sealevel;temperature;humidity
26859;BME280;14429;48.346;16.338;2022-12-29T00:01:08;100013.63;;;11.57;51.05
26859;BME280;14429;48.346;16.338;2022-12-29T00:03:34;100005.81;;;11.54;51.19
26859;BME280;14429;48.346;16.338;2022-12-29T00:05:59;100016.59;;;11.52;51.49
26859;BME280;14429;48.346;16.338;2022-12-29T00:08:25;100014.25;;;11.48;51.50
26859;BME280;14429;48.346;16.338;2022-12-29T00:10:50;100023.63;;;11.41;51.51
26859;BME280;14429;48.346;16.338;2022-12-29T00:13:15;100016.16;;;11.46;51.63
26859;BME280;14429;48.346;16.338;2022-12-29T00:15:42;100003.38;;;11.51;51.08
26859;BME280;14429;48.346;16.338;2022-12-29T00:18:08;100012.13;;;11.53;51.18
26859;BME280;14429;48.346;16.338;2022-12-29T00:20:34;100006.34;;;11.46;51.36
26859;BME280;14429;48.346;16.338;2022-12-29T00:23:00;100011.25;;;11.40;51.44
26859;BME280;14429;48.346;16.338;2022-12-29T00:25:25;100011.25;;;11.40;51.56
26859;BME280;14429;48.346;16.338;2022-12-29T00:27:51;100012.94;;;11.41;51.43
26859;BME280;14429;48.346;16.338;2022-12-29T00:30:19;100012.53;;;11.47;51.01
26859;BME280;14429;48.346;16.338;2022-12-29T00:32:45;100012.75;;;11.44;51.20
26859;BME280;14429;48.346;16.338;2022-12-29T00:35:14;100020.75;;;11.44;51.40
26859;BME280;14429;48.346;16.338;2022-12-29T00:37:46;100009.50;;;11.39;51.36
26859;BME280;14429;48.346;16.338;2022-12-29T00:40:13;100013.16;;;11.38;51.39
26859;BME280;14429;48.346;16.338;2022-12-29T00:42:38;100013.16;;;11.38;51.43
26859;BME280;14429;48.346;16.338;2022-12-29T00:45:04;100012.53;;;11.47;50.77
26859;BME280;14429;48.346;16.338;2022-12-29T00:47:30;100018.28;;;11.41;51.17
26859;BME280;14429;48.346;16.338;2022-12-29T00:49:57;100012.94;;;11.41;51.45
26859;BME280;14429;48.346;16.338;2022-12-29T00:52:22;100024.69;;;11.38;51.39
26859;BME280;14429;48.346;16.338;2022-12-29T00:54:48;100020.59;;;11.33;51.68
26859;BME280;14429;48.346;16.338;2022-12-29T00:57:13;100015.63;;;11.27;51.66
26859;BME280;14429;48.346;16.338;2022-12-29T00:59:40;100023.97;;;11.23;51.83
26859;BME280;14429;48.346;16.338;2022-12-29T01:02:06;100021.63;;;11.30;51.66
26859;BME280;14429;48.346;16.338;2022-12-29T01:04:31;100019.41;;;11.37;51.30
26859;BME280;14429;48.346;16.338;2022-12-29T01:06:58;100027.81;;;11.31;51.58
26859;BME280;14429;48.346;16.338;2022-12-29T01:09:24;100033.59;;;11.25;51.90
26859;BME280;14429;48.346;16.338;2022-12-29T01:11:50;100022.91;;;11.25;51.67
26859;BME280;14429;48.346;16.338;2022-12-29T01:14:16;100028.25;;;11.25;51.64
26859;BME280;14429;48.346;16.338;2022-12-29T01:16:42;100028.03;;;11.28;51.60
26859;BME280;14429;48.346;16.338;2022-12-29T01:19:07;100032.31;;;11.30;51.10
26859;BME280;14429;48.346;16.338;2022-12-29T01:21:33;100025.59;;;11.25;51.69
26859;BME280;14429;48.346;16.338;2022-12-29T01:24:00;100027.00;;;11.17;51.82
26859;BME280;14429;48.346;16.338;2022-12-29T01:26:25;100021.78;;;11.15;51.83
26859;BME280;14429;48.346;16.338;2022-12-29T01:28:51;100016.25;;;11.18;51.71
26859;BME280;14429;48.346;16.338;2022-12-29T01:31:16;100016.06;;;11.21;51.63
26859;BME280;14429;48.346;16.338;2022-12-29T01:33:42;100019.94;;;11.30;50.85
26859;BME280;14429;48.346;16.338;2022-12-29T01:36:09;100022.34;;;11.20;51.50
26859;BME280;14429;48.346;16.338;2022-12-29T01:38:36;100032.94;;;11.22;51.57
26859;BME280;14429;48.346;16.338;2022-12-29T01:41:04;100032.81;;;11.23;51.39
26859;BME280;14429;48.346;16.338;2022-12-29T01:43:40;100025.00;;;11.20;51.51
26859;BME280;14429;48.346;16.338;2022-12-29T01:46:11;100019.28;;;11.26;51.24
26859;BME280;14429;48.346;16.338;2022-12-29T01:48:40;100016.50;;;11.28;50.78
26859;BME280;14429;48.346;16.338;2022-12-29T01:51:06;100009.00;;;11.20;51.33
26859;BME280;14429;48.346;16.338;2022-12-29T01:53:33;100009.00;;;11.20;51.47
26859;BME280;14429;48.346;16.338;2022-12-29T01:56:03;99998.56;;;11.17;51.51
26859;BME280;14429;48.346;16.338;2022-12-29T01:58:32;99996.06;;;11.14;51.39
26859;BME280;14429;48.346;16.338;2022-12-29T02:00:59;99995.75;;;11.19;51.36
26859;BME280;14429;48.346;16.338;2022-12-29T02:03:25;99994.59;;;11.23;50.80
26859;BME280;14429;48.346;16.338;2022-12-29T02:05:53;99992.97;;;11.20;51.34
26859;BME280;14429;48.346;16.338;2022-12-29T02:08:22;99999.59;;;11.15;51.36
26859;BME280;14429;48.346;16.338;2022-12-29T02:10:49;99998.75;;;11.14;51.32
26859;BME280;14429;48.346;16.338;2022-12-29T02:13:17;99986.56;;;11.10;51.24
26859;BME280;14429;48.346;16.338;2022-12-29T02:15:51;99977.59;;;11.11;51.49
26859;BME280;14429;48.346;16.338;2022-12-29T02:18:26;99977.09;;;11.19;50.75
26859;BME280;14429;48.346;16.338;2022-12-29T02:21:28;99977.28;;;11.16;51.11
26859;BME280;14429;48.346;16.338;2022-12-29T02:24:17;99982.72;;;11.14;51.46
26859;BME280;14429;48.346;16.338;2022-12-29T02:27:12;99965.59;;;11.04;51.58
26859;BME280;14429;48.346;16.338;2022-12-29T02:30:03;99961.13;;;11.05;51.53
26859;BME280;14429;48.346;16.338;2022-12-29T02:32:37;99963.47;;;11.09;51.14
26859;BME280;14429;48.346;16.338;2022-12-29T02:35:09;99970.34;;;11.13;51.04
26859;BME280;14429;48.346;16.338;2022-12-29T02:37:41;99971.41;;;11.11;51.32
26859;BME280;14429;48.346;16.338;2022-12-29T02:40:18;99964.75;;;11.04;51.46
26859;BME280;14429;48.346;16.338;2022-12-29T02:42:50;99969.25;;;11.03;51.39
26859;BME280;14429;48.346;16.338;2022-12-29T02:45:21;99949.16;;;10.98;51.73
26859;BME280;14429;48.346;16.338;2022-12-29T02:47:54;99949.59;;;11.04;51.17
26859;BME280;14429;48.346;16.338;2022-12-29T02:50:24;99941.50;;;11.06;51.05
26859;BME280;14429;48.346;16.338;2022-12-29T02:52:56;99958.56;;;11.03;51.47
26859;BME280;14429;48.346;16.338;2022-12-29T02:55:22;99966.56;;;11.03;51.26
26859;BME280;14429;48.346;16.338;2022-12-29T02:57:47;99962.59;;;10.97;51.60
26859;BME280;14429;48.346;16.338;2022-12-29T03:00:15;99950.22;;;10.96;51.54
26859;BME280;14429;48.346;16.338;2022-12-29T03:03:17;99952.28;;;11.04;51.08
26859;BME280;14429;48.346;16.338;2022-12-29T03:05:58;99955.72;;;11.06;51.12
26859;BME280;14429;48.346;16.338;2022-12-29T03:08:34;99956.94;;;11.01;51.45
26859;BME280;14429;48.346;16.338;2022-12-29T03:11:03;99948.22;;;10.99;51.32
26859;BME280;14429;48.346;16.338;2022-12-29T03:13:35;99961.09;;;10.93;51.55
26859;BME280;14429;48.346;16.338;2022-12-29T03:16:10;99958.97;;;10.98;51.39
26859;BME280;14429;48.346;16.338;2022-12-29T03:18:48;99957.25;;;10.97;51.20
26859;BME280;14429;48.346;16.338;2022-12-29T03:21:20;99950.88;;;10.99;51.16
26859;BME280;14429;48.346;16.338;2022-12-29T03:23:50;99965.16;;;10.98;51.39
26859;BME280;14429;48.346;16.338;2022-12-29T03:26:17;99963.56;;;10.96;51.35
26859;BME280;14429;48.346;16.338;2022-12-29T03:28:46;99961.09;;;10.93;51.43
26859;BME280;14429;48.346;16.338;2022-12-29T03:31:14;99956.41;;;10.96;51.37
26859;BME280;14429;48.346;16.338;2022-12-29T03:33:41;99969.84;;;10.95;51.17
26859;BME280;14429;48.346;16.338;2022-12-29T03:36:11;99959.63;;;11.01;50.82
26859;BME280;14429;48.346;16.338;2022-12-29T03:38:44;99957.47;;;10.94;51.27
26859;BME280;14429;48.346;16.338;2022-12-29T03:41:13;99955.75;;;10.93;51.24
26859;BME280;14429;48.346;16.338;2022-12-29T03:43:40;99954.91;;;10.92;51.21
26859;BME280;14429;48.346;16.338;2022-12-29T03:46:06;99957.66;;;10.91;51.43
26859;BME280;14429;48.346;16.338;2022-12-29T03:48:31;99955.94;;;10.90;51.33
26859;BME280;14429;48.346;16.338;2022-12-29T03:50:57;99964.50;;;10.95;50.94
26859;BME280;14429;48.346;16.338;2022-12-29T03:53:23;99960.25;;;10.92;51.23
26859;BME280;14429;48.346;16.338;2022-12-29T03:55:49;99952.44;;;10.89;51.31
26859;BME280;14429;48.346;16.338;2022-12-29T03:58:14;99959.59;;;10.89;51.30
26859;BME280;14429;48.346;16.338;2022-12-29T04:00:40;99949.88;;;10.88;51.25
26859;BME280;14429;48.346;16.338;2022-12-29T04:03:05;99941.72;;;10.77;51.24
26859;BME280;14429;48.346;16.338;2022-12-29T04:05:30;99956.63;;;10.53;51.36
26859;BME280;14429;48.346;16.338;2022-12-29T04:07:56;99947.09;;;10.63;51.77
26859;BME280;14429;48.346;16.338;2022-12-29T04:10:23;99949.91;;;10.74;51.72
26859;BME280;14429;48.346;16.338;2022-12-29T04:12:48;99947.78;;;10.79;51.74
26859;BME280;14429;48.346;16.338;2022-12-29T04:15:14;99949.91;;;10.74;51.80
26859;BME280;14429;48.346;16.338;2022-12-29T04:17:39;99955.91;;;10.77;51.76
26859;BME280;14429;48.346;16.338;2022-12-29T04:20:06;99946.09;;;10.78;51.73
26859;BME280;14429;48.346;16.338;2022-12-29T04:22:31;99950.38;;;10.80;51.65
26859;BME280;14429;48.346;16.338;2022-12-29T04:24:57;99957.09;;;10.86;51.20
26859;BME280;14429;48.346;16.338;2022-12-29T04:27:23;99960.94;;;10.82;51.43
26859;BME280;14429;48.346;16.338;2022-12-29T04:29:49;99965.31;;;10.83;51.49
26859;BME280;14429;48.346;16.338;2022-12-29T04:32:14;99972.28;;;10.72;51.66
26859;BME280;14429;48.346;16.338;2022-12-29T04:34:40;99960.41;;;10.77;51.71
26859;BME280;14429;48.346;16.338;2022-12-29T04:37:05;99953.97;;;10.79;51.53
26859;BME280;14429;48.346;16.338;2022-12-29T04:39:30;99963.94;;;10.64;51.44
26859;BME280;14429;48.346;16.338;2022-12-29T04:41:56;99962.81;;;10.14;51.71
26859;BME280;14429;48.346;16.338;2022-12-29T04:44:23;99971.06;;;10.23;53.10
26859;BME280;14429;48.346;16.338;2022-12-29T04:46:48;99981.22;;;9.76;52.93
26859;BME280;14429;48.346;16.338;2022-12-29T04:49:14;99972.50;;;10.29;53.00
26859;BME280;14429;48.346;16.338;2022-12-29T04:51:39;99969.63;;;10.04;52.71
26859;BME280;14429;48.346;16.338;2022-12-29T04:54:04;99957.59;;;10.39;52.76
26859;BME280;14429;48.346;16.338;2022-12-29T04:56:30;99971.16;;;10.22;48.81
26859;BME280;14429;48.346;16.338;2022-12-29T04:58:55;99964.19;;;10.33;52.55
26859;BME280;14429;48.346;16.338;2022-12-29T05:01:22;99970.59;;;10.03;50.34
26859;BME280;14429;48.346;16.338;2022-12-29T05:03:49;99967.94;;;9.90;51.79
26859;BME280;14429;48.346;16.338;2022-12-29T05:06:15;99967.66;;;10.22;52.63
26859;BME280;14429;48.346;16.338;2022-12-29T05:08:40;99970.19;;;10.23;52.91
26859;BME280;14429;48.346;16.338;2022-12-29T05:11:06;99967.59;;;10.49;52.00
26859;BME280;14429;48.346;16.338;2022-12-29T05:13:31;99968.97;;;9.44;51.72
26859;BME280;14429;48.346;16.338;2022-12-29T05:15:56;99959.19;;;10.15;53.21
26859;BME280;14429;48.346;16.338;2022-12-29T05:18:24;99961.84;;;10.29;52.89
26859;BME280;14429;48.346;16.338;2022-12-29T05:20:49;99954.88;;;9.85;50.88
26859;BME280;14429;48.346;16.338;2022-12-29T05:23:15;99971.13;;;9.38;52.79
26859;BME280;14429;48.346;16.338;2022-12-29T05:25:40;99970.50;;;9.48;50.93
26859;BME280;14429;48.346;16.338;2022-12-29T05:28:06;99969.44;;;8.33;52.52
26859;BME280;14429;48.346;16.338;2022-12-29T05:30:31;99969.94;;;9.43;53.73
26859;BME280;14429;48.346;16.338;2022-12-29T05:32:57;99973.28;;;8.74;54.13
26859;BME280;14429;48.346;16.338;2022-12-29T05:35:23;99965.59;;;9.70;54.66
26859;BME280;14429;48.346;16.338;2022-12-29T05:37:49;99964.75;;;9.27;55.46
26859;BME280;14429;48.346;16.338;2022-12-29T05:40:14;99971.28;;;9.64;54.76
26859;BME280;14429;48.346;16.338;2022-12-29T05:42:40;99962.91;;;9.99;53.71
26859;BME280;14429;48.346;16.338;2022-12-29T05:45:07;99975.75;;;10.06;53.58
26859;BME280;14429;48.346;16.338;2022-12-29T05:47:32;99961.56;;;9.92;53.87
26859;BME280;14429;48.346;16.338;2022-12-29T05:49:58;99959.00;;;10.18;53.21
26859;BME280;14429;48.346;16.338;2022-12-29T05:52:25;99961.97;;;9.71;49.91
26859;BME280;14429;48.346;16.338;2022-12-29T05:54:50;99960.88;;;10.16;53.11
26859;BME280;14429;48.346;16.338;2022-12-29T05:57:16;99956.75;;;10.38;52.19
26859;BME280;14429;48.346;16.338;2022-12-29T05:59:41;99959.34;;;10.40;52.49
26859;BME280;14429;48.346;16.338;2022-12-29T06:02:07;99960.66;;;10.47;52.36
26859;BME280;14429;48.346;16.338;2022-12-29T06:04:32;99956.28;;;10.46;52.16
26859;BME280;14429;48.346;16.338;2022-12-29T06:06:57;99962.72;;;10.55;51.94
26859;BME280;14429;48.346;16.338;2022-12-29T06:09:24;99963.88;;;10.51;52.02
26859;BME280;14429;48.346;16.338;2022-12-29T06:11:50;99965.22;;;10.58;51.85
26859;BME280;14429;48.346;16.338;2022-12-29T06:14:15;99961.38;;;10.62;51.68
26859;BME280;14429;48.346;16.338;2022-12-29T06:16:40;99963.59;;;10.42;52.23
26859;BME280;14429;48.346;16.338;2022-12-29T06:19:06;99964.94;;;10.49;51.96
26859;BME280;14429;48.346;16.338;2022-12-29T06:21:31;99967.41;;;10.52;51.96
26859;BME280;14429;48.346;16.338;2022-12-29T06:23:57;99961.03;;;10.54;51.98
26859;BME280;14429;48.346;16.338;2022-12-29T06:26:24;99963.94;;;10.24;52.60
26859;BME280;14429;48.346;16.338;2022-12-29T06:28:49;99962.97;;;10.25;51.93
26859;BME280;14429;48.346;16.338;2022-12-29T06:31:14;99963.50;;;9.75;48.63
26859;BME280;14429;48.346;16.338;2022-12-29T06:33:40;99965.13;;;9.21;54.05
26859;BME280;14429;48.346;16.338;2022-12-29T06:36:06;99958.56;;;9.69;52.74
26859;BME280;14429;48.346;16.338;2022-12-29T06:38:31;99962.53;;;9.91;53.64
26859;BME280;14429;48.346;16.338;2022-12-29T06:40:57;99969.28;;;10.10;53.26
26859;BME280;14429;48.346;16.338;2022-12-29T06:43:24;99972.16;;;9.65;52.47
26859;BME280;14429;48.346;16.338;2022-12-29T06:45:49;99972.56;;;8.86;53.46
26859;BME280;14429;48.346;16.338;2022-12-29T06:48:14;99975.75;;;9.50;54.71
26859;BME280;14429;48.346;16.338;2022-12-29T06:50:40;99981.66;;;8.82;55.35
26859;BME280;14429;48.346;16.338;2022-12-29T06:53:06;99985.38;;;8.02;54.77
26859;BME280;14429;48.346;16.338;2022-12-29T06:55:31;99997.25;;;7.63;59.22
26859;BME280;14429;48.346;16.338;2022-12-29T06:57:57;99998.97;;;8.12;58.19
26859;BME280;14429;48.346;16.338;2022-12-29T07:00:25;99988.97;;;8.63;55.19
26859;BME280;14429;48.346;16.338;2022-12-29T07:02:50;99986.72;;;8.71;53.51
26859;BME280;14429;48.346;16.338;2022-12-29T07:05:16;99979.28;;;8.32;58.35
26859;BME280;14429;48.346;16.338;2022-12-29T07:07:42;99985.09;;;8.84;56.65
26859;BME280;14429;48.346;16.338;2022-12-29T07:10:07;99983.06;;;8.12;58.03
26859;BME280;14429;48.346;16.338;2022-12-29T07:12:33;99977.13;;;9.28;55.94
26859;BME280;14429;48.346;16.338;2022-12-29T07:14:58;99981.81;;;9.09;56.33
26859;BME280;14429;48.346;16.338;2022-12-29T07:17:25;99985.09;;;9.28;56.01
26859;BME280;14429;48.346;16.338;2022-12-29T07:19:50;99973.88;;;8.94;55.59
26859;BME280;14429;48.346;16.338;2022-12-29T07:22:16;99978.69;;;9.16;56.34
26859;BME280;14429;48.346;16.338;2022-12-29T07:24:41;99972.53;;;9.16;55.76
26859;BME280;14429;48.346;16.338;2022-12-29T07:27:07;99972.69;;;9.13;55.78
26859;BME280;14429;48.346;16.338;2022-12-29T07:29:32;99968.94;;;9.31;54.75
26859;BME280;14429;48.346;16.338;2022-12-29T07:31:57;99971.84;;;9.55;54.85
26859;BME280;14429;48.346;16.338;2022-12-29T07:34:24;99970.84;;;9.85;54.15
26859;BME280;14429;48.346;16.338;2022-12-29T07:36:50;99966.31;;;9.44;55.13
26859;BME280;14429;48.346;16.338;2022-12-29T07:39:15;99974.88;;;8.15;55.02
26859;BME280;14429;48.346;16.338;2022-12-29T07:41:40;99958.13;;;8.76;55.48
26859;BME280;14429;48.346;16.338;2022-12-29T07:44:08;99976.97;;;8.56;57.18
26859;BME280;14429;48.346;16.338;2022-12-29T07:46:33;99980.56;;;8.25;55.79
26859;BME280;14429;48.346;16.338;2022-12-29T07:48:59;99979.47;;;8.44;56.47
26859;BME280;14429;48.346;16.338;2022-12-29T07:51:26;99980.28;;;8.14;58.55
26859;BME280;14429;48.346;16.338;2022-12-29T07:53:51;99977.59;;;8.31;57.72
26859;BME280;14429;48.346;16.338;2022-12-29T07:56:17;99970.81;;;7.93;58.64
26859;BME280;14429;48.346;16.338;2022-12-29T07:58:42;99978.38;;;7.69;59.52
26859;BME280;14429;48.346;16.338;2022-12-29T08:01:07;99976.97;;;7.94;59.34
26859;BME280;14429;48.346;16.338;2022-12-29T08:03:33;99987.28;;;7.51;60.49
26859;BME280;14429;48.346;16.338;2022-12-29T08:05:58;99981.00;;;8.17;58.72
26859;BME280;14429;48.346;16.338;2022-12-29T08:08:25;99993.06;;;7.42;58.76
26859;BME280;14429;48.346;16.338;2022-12-29T08:10:50;99985.53;;;8.76;57.51
26859;BME280;14429;48.346;16.338;2022-12-29T08:13:16;99983.31;;;7.91;58.91
26859;BME280;14429;48.346;16.338;2022-12-29T08:15:41;99988.06;;;7.36;61.24
26859;BME280;14429;48.346;16.338;2022-12-29T08:18:07;99978.91;;;8.98;56.44
26859;BME280;14429;48.346;16.338;2022-12-29T08:20:32;99982.88;;;9.20;55.69
26859;BME280;14429;48.346;16.338;2022-12-29T08:22:57;99982.66;;;8.50;56.16
26859;BME280;14429;48.346;16.338;2022-12-29T08:25:24;99972.97;;;8.49;56.98
26859;BME280;14429;48.346;16.338;2022-12-29T08:27:50;99987.00;;;8.51;55.17
26859;BME280;14429;48.346;16.338;2022-12-29T08:30:15;99985.88;;;8.25;56.36
26859;BME280;14429;48.346;16.338;2022-12-29T08:32:41;99995.13;;;8.79;57.29
26859;BME280;14429;48.346;16.338;2022-12-29T08:35:07;99987.84;;;8.82;55.35
26859;BME280;14429;48.346;16.338;2022-12-29T08:37:33;99981.59;;;9.41;55.42
26859;BME280;14429;48.346;16.338;2022-12-29T08:39:58;99980.44;;;9.74;54.42
26859;BME280;14429;48.346;16.338;2022-12-29T08:42:25;99981.19;;;9.04;55.98
26859;BME280;14429;48.346;16.338;2022-12-29T08:44:51;99979.03;;;9.68;54.45
26859;BME280;14429;48.346;16.338;2022-12-29T08:47:16;99977.13;;;9.41;54.43
26859;BME280;14429;48.346;16.338;2022-12-29T08:49:42;99974.03;;;9.49;54.66
26859;BME280;14429;48.346;16.338;2022-12-29T08:52:07;99975.00;;;8.90;55.52
26859;BME280;14429;48.346;16.338;2022-12-29T08:54:33;99969.44;;;9.08;56.15
26859;BME280;14429;48.346;16.338;2022-12-29T08:56:58;99976.53;;;8.18;58.65
26859;BME280;14429;48.346;16.338;2022-12-29T08:59:25;99974.16;;;8.29;58.20
26859;BME280;14429;48.346;16.338;2022-12-29T09:01:51;99960.59;;;8.18;58.79
26859;BME280;14429;48.346;16.338;2022-12-29T09:04:16;99965.41;;;8.57;58.03
26859;BME280;14429;48.346;16.338;2022-12-29T09:06:42;99964.41;;;9.33;55.59
26859;BME280;14429;48.346;16.338;2022-12-29T09:09:08;99958.16;;;8.89;56.52
26859;BME280;14429;48.346;16.338;2022-12-29T09:11:33;99953.91;;;8.41;57.47
26859;BME280;14429;48.346;16.338;2022-12-29T09:13:58;99964.13;;;8.64;57.52
26859;BME280;14429;48.346;16.338;2022-12-29T09:16:25;99961.13;;;8.39;55.94
26859;BME280;14429;48.346;16.338;2022-12-29T09:18:51;99962.00;;;7.61;57.67
26859;BME280;14429;48.346;16.338;2022-12-29T09:21:16;99959.34;;;8.99;56.60
26859;BME280;14429;48.346;16.338;2022-12-29T09:23:42;99955.78;;;8.70;56.87
26859;BME280;14429;48.346;16.338;2022-12-29T09:26:08;99959.34;;;8.99;55.20
26859;BME280;14429;48.346;16.338;2022-12-29T09:28:34;99951.44;;;9.13;55.67
26859;BME280;14429;48.346;16.338;2022-12-29T09:31:00;99953.13;;;9.14;54.24
26859;BME280;14429;48.346;16.338;2022-12-29T09:33:27;99947.34;;;9.78;53.74
26859;BME280;14429;48.346;16.338;2022-12-29T09:35:54;99948.72;;;8.99;55.06
26859;BME280;14429;48.346;16.338;2022-12-29T09:38:20;99955.56;;;9.03;53.48
26859;BME280;14429;48.346;16.338;2022-12-29T09:40:49;99951.59;;;9.10;54.57
26859;BME280;14429;48.346;16.338;2022-12-29T09:43:29;99953.56;;;9.36;54.62
26859;BME280;14429;48.346;16.338;2022-12-29T09:46:05;99940.66;;;9.43;55.01
26859;BME280;14429;48.346;16.338;2022-12-29T09:48:39;99938.97;;;8.85;54.20
26859;BME280;14429;48.346;16.338;2022-12-29T09:51:09;99944.16;;;8.57;55.96
26859;BME280;14429;48.346;16.338;2022-12-29T09:53:38;99949.72;;;8.53;57.63
26859;BME280;14429;48.346;16.338;2022-12-29T09:56:05;99954.50;;;7.69;58.79
26859;BME280;14429;48.346;16.338;2022-12-29T09:58:38;99949.28;;;8.45;57.89
26859;BME280;14429;48.346;16.338;2022-12-29T10:01:07;99957.88;;;8.34;56.57
26859;BME280;14429;48.346;16.338;2022-12-29T10:03:45;99955.06;;;8.97;56.18
26859;BME280;14429;48.346;16.338;2022-12-29T10:06:13;99943.47;;;9.27;55.52
26859;BME280;14429;48.346;16.338;2022-12-29T10:08:46;99949.19;;;8.77;55.52
26859;BME280;14429;48.346;16.338;2022-12-29T10:11:22;99947.69;;;9.02;55.86
26859;BME280;14429;48.346;16.338;2022-12-29T10:14:03;99941.72;;;8.83;55.12
26859;BME280;14429;48.346;16.338;2022-12-29T10:16:38;99944.50;;;8.36;57.67
26859;BME280;14429;48.346;16.338;2022-12-29T10:19:35;99939.34;;;8.33;55.52
26859;BME280;14429;48.346;16.338;2022-12-29T10:22:12;99938.63;;;8.90;56.48
26859;BME280;14429;48.346;16.338;2022-12-29T10:24:44;99933.84;;;9.11;56.22
26859;BME280;14429;48.346;16.338;2022-12-29T10:27:12;99936.59;;;9.09;54.79
26859;BME280;14429;48.346;16.338;2022-12-29T10:29:42;99934.13;;;9.06;53.50
26859;BME280;14429;48.346;16.338;2022-12-29T10:32:16;99926.50;;;9.43;54.85
26859;BME280;14429;48.346;16.338;2022-12-29T10:34:47;99919.69;;;9.10;55.44
26859;BME280;14429;48.346;16.338;2022-12-29T10:37:21;99915.34;;;8.65;56.12
26859;BME280;14429;48.346;16.338;2022-12-29T10:39:52;99919.28;;;8.73;55.55
26859;BME280;14429;48.346;16.338;2022-12-29T10:42:24;99923.31;;;7.57;57.97
26859;BME280;14429;48.346;16.338;2022-12-29T10:44:50;99923.53;;;9.20;56.21
26859;BME280;14429;48.346;16.338;2022-12-29T10:47:19;99940.88;;;8.52;56.21
26859;BME280;14429;48.346;16.338;2022-12-29T10:49:47;99928.84;;;9.20;55.74
26859;BME280;14429;48.346;16.338;2022-12-29T10:52:14;99927.56;;;8.38;58.16
26859;BME280;14429;48.346;16.338;2022-12-29T10:54:45;99929.41;;;8.36;57.16
26859;BME280;14429;48.346;16.338;2022-12-29T10:57:15;99920.47;;;8.53;57.47
26859;BME280;14429;48.346;16.338;2022-12-29T10:59:45;99921.66;;;8.78;55.72
26859;BME280;14429;48.346;16.338;2022-12-29T11:02:25;99915.16;;;9.26;55.66
26859;BME280;14429;48.346;16.338;2022-12-29T11:05:02;99910.00;;;9.23;54.05
26859;BME280;14429;48.346;16.338;2022-12-29T11:07:28;99907.06;;;8.85;54.46
26859;BME280;14429;48.346;16.338;2022-12-29T11:09:54;99906.44;;;9.24;55.65
26859;BME280;14429;48.346;16.338;2022-12-29T11:12:23;99888.59;;;9.53;54.36
26859;BME280;14429;48.346;16.338;2022-12-29T11:15:02;99898.84;;;9.59;54.50
26859;BME280;14429;48.346;16.338;2022-12-29T11:17:27;99896.03;;;9.76;53.80
26859;BME280;14429;48.346;16.338;2022-12-29T11:19:53;99904.38;;;8.56;55.69
26859;BME280;14429;48.346;16.338;2022-12-29T11:22:22;99902.94;;;8.94;55.89
26859;BME280;14429;48.346;16.338;2022-12-29T11:24:50;99900.78;;;9.57;54.72
26859;BME280;14429;48.346;16.338;2022-12-29T11:27:18;99889.81;;;9.75;54.17
26859;BME280;14429;48.346;16.338;2022-12-29T11:29:44;99884.00;;;9.41;55.17
26859;BME280;14429;48.346;16.338;2022-12-29T11:32:11;99884.94;;;9.27;54.38
26859;BME280;14429;48.346;16.338;2022-12-29T11:34:37;99880.19;;;9.18;55.64
26859;BME280;14429;48.346;16.338;2022-12-29T11:37:04;99885.47;;;9.04;55.76
26859;BME280;14429;48.346;16.338;2022-12-29T11:39:37;99886.84;;;9.25;55.56
26859;BME280;14429;48.346;16.338;2022-12-29T11:42:06;99885.38;;;9.76;54.11
26859;BME280;14429;48.346;16.338;2022-12-29T11:44:41;99887.84;;;9.65;54.06
26859;BME280;14429;48.346;16.338;2022-12-29T11:47:11;99880.91;;;9.76;53.83
26859;BME280;14429;48.346;16.338;2022-12-29T11:49:38;99879.75;;;9.80;53.69
26859;BME280;14429;48.346;16.338;2022-12-29T11:52:04;99869.19;;;9.79;53.65
26859;BME280;14429;48.346;16.338;2022-12-29T11:54:32;99877.72;;;9.15;55.50
26859;BME280;14429;48.346;16.338;2022-12-29T11:57:09;99864.63;;;9.67;54.13
26859;BME280;14429;48.346;16.338;2022-12-29T11:59:42;99876.63;;;9.74;54.13
26859;BME280;14429;48.346;16.338;2022-12-29T12:02:21;99865.69;;;9.92;53.08
26859;BME280;14429;48.346;16.338;2022-12-29T12:04:49;99860.56;;;8.91;54.53
26859;BME280;14429;48.346;16.338;2022-12-29T12:07:20;99864.38;;;8.88;56.53
26859;BME280;14429;48.346;16.338;2022-12-29T12:09:51;99852.94;;;9.28;55.04
26859;BME280;14429;48.346;16.338;2022-12-29T12:12:24;99858.94;;;9.45;54.98
26859;BME280;14429;48.346;16.338;2022-12-29T12:14:55;99848.66;;;9.67;54.33
26859;BME280;14429;48.346;16.338;2022-12-29T12:17:24;99867.97;;;8.87;54.91
26859;BME280;14429;48.346;16.338;2022-12-29T12:19:56;99859.50;;;9.64;54.55
26859;BME280;14429;48.346;16.338;2022-12-29T12:22:26;99868.66;;;9.88;53.69
26859;BME280;14429;48.346;16.338;2022-12-29T12:24:58;99871.69;;;9.54;54.20
26859;BME280;14429;48.346;16.338;2022-12-29T12:27:31;99874.53;;;9.51;54.65
26859;BME280;14429;48.346;16.338;2022-12-29T12:30:02;99865.97;;;9.60;53.25
26859;BME280;14429;48.346;16.338;2022-12-29T12:32:36;99869.19;;;9.24;55.30
26859;BME280;14429;48.346;16.338;2022-12-29T12:35:05;99861.50;;;9.33;54.01
26859;BME280;14429;48.346;16.338;2022-12-29T12:37:52;99859.13;;;8.57;57.66
26859;BME280;14429;48.346;16.338;2022-12-29T12:40:39;99857.78;;;9.63;54.64
26859;BME280;14429;48.346;16.338;2022-12-29T12:43:34;99852.28;;;9.66;54.52
26859;BME280;14429;48.346;16.338;2022-12-29T12:46:15;99858.00;;;9.88;53.33
26859;BME280;14429;48.346;16.338;2022-12-29T12:49:07;99840.31;;;9.59;53.99
26859;BME280;14429;48.346;16.338;2022-12-29T12:51:44;99845.44;;;9.90;53.76
26859;BME280;14429;48.346;16.338;2022-12-29T12:54:24;99837.84;;;9.42;53.83
26859;BME280;14429;48.346;16.338;2022-12-29T12:57:02;99841.63;;;9.80;54.18
26859;BME280;14429;48.346;16.338;2022-12-29T12:59:40;99837.25;;;9.93;52.74
26859;BME280;14429;48.346;16.338;2022-12-29T13:02:20;99843.56;;;9.50;53.85